Time;durP1;ratioP1;P1;durP2;ratioP2;P2;SDS_P1;SDS_P2;PMS_P1;PMS_P2;Temp;Humidity;BMP_temperature;BMP_pressure;BME280_temperature;BME280_humidity;BME280_pressure;Samples;Min_cycle;Max_cycle;Signal;HPM_P1;HPM_P2
2022/06/27 00:00:30;;;;;;;;;15.80;13.80;;;;;25.05;58.17;99411.25;5095769;28;8837;-75
2022/06/27 00:03:11;;;;;;;;;12.20;12.20;;;;;24.79;59.52;99414.69;5110219;28;8867;-74
2022/06/27 00:05:40;;;;;;;;;14.80;12.80;;;;;24.76;59.71;99410.38;5089700;28;8851;-74
2022/06/27 00:08:08;;;;;;;;;12.00;12.00;;;;;24.80;58.89;99414.59;5073170;28;8859;-73
2022/06/27 00:10:37;;;;;;;;;9.80;8.80;;;;;24.79;57.24;99410.19;5106541;28;8877;-75
2022/06/27 00:13:05;;;;;;;;;8.40;8.40;;;;;24.80;57.27;99413.72;5073449;28;8843;-73
2022/06/27 00:15:34;;;;;;;;;10.40;9.60;;;;;24.90;57.14;99412.22;5089820;28;8897;-75
2022/06/27 00:18:02;;;;;;;;;10.20;9.00;;;;;24.94;56.80;99418.22;5088784;28;8844;-73
2022/06/27 00:20:33;;;;;;;;;10.00;9.80;;;;;24.95;56.80;99419.91;5106386;28;8874;-73
2022/06/27 00:23:02;;;;;;;;;9.40;9.40;;;;;24.99;56.97;99408.09;5106888;28;8852;-72
2022/06/27 00:25:30;;;;;;;;;9.00;9.00;;;;;25.02;56.60;99400.75;5106412;28;8862;-73
2022/06/27 00:27:59;;;;;;;;;9.80;9.80;;;;;25.03;56.16;99402.50;5085339;28;8850;-73
2022/06/27 00:30:27;;;;;;;;;10.40;10.40;;;;;25.07;56.17;99406.69;5069081;28;8850;-74
2022/06/27 00:32:56;;;;;;;;;8.00;8.00;;;;;25.10;55.79;99405.63;5043687;28;8930;-73
2022/06/27 00:35:24;;;;;;;;;9.80;9.80;;;;;25.07;56.01;99408.50;5068874;28;8854;-72
2022/06/27 00:37:54;;;;;;;;;8.00;8.00;;;;;24.97;56.22;99405.56;5085516;28;8876;-73
2022/06/27 00:40:23;;;;;;;;;9.60;9.60;;;;;25.01;55.85;99411.53;5069408;28;8854;-71
2022/06/27 00:42:51;;;;;;;;;10.20;9.60;;;;;24.97;56.02;99407.34;5055583;28;8853;-72
2022/06/27 00:45:20;;;;;;;;;8.40;7.60;;;;;24.88;55.25;99411.47;5086022;28;8869;-73
2022/06/27 00:47:50;;;;;;;;;7.00;7.00;;;;;24.93;54.67;99413.81;5087158;28;8837;-73
2022/06/27 00:50:19;;;;;;;;;8.40;8.40;;;;;24.99;54.68;99416.97;5109966;27;8829;-73
2022/06/27 00:52:48;;;;;;;;;11.40;10.20;;;;;25.05;55.50;99408.59;5090329;28;8959;-72
2022/06/27 00:55:18;;;;;;;;;9.60;9.60;;;;;25.12;55.54;99411.72;5107401;28;10177;-72
2022/06/27 00:57:47;;;;;;;;;8.20;8.00;;;;;25.15;55.34;99408.88;5069081;28;8847;-73
2022/06/27 01:00:16;;;;;;;;;8.80;8.80;;;;;25.17;55.39;99411.44;5087103;28;8875;-72
2022/06/27 01:02:44;;;;;;;;;8.40;7.00;;;;;25.19;55.43;99406.84;5088409;28;8855;-74
2022/06/27 01:05:13;;;;;;;;;8.40;8.40;;;;;25.20;54.64;99406.75;5035783;28;8839;-72
2022/06/27 01:07:42;;;;;;;;;7.60;7.60;;;;;25.20;54.71;99409.44;5087989;28;8862;-74
2022/06/27 01:10:11;;;;;;;;;6.40;6.40;;;;;25.24;55.26;99415.47;5070103;28;8897;-74
2022/06/27 01:12:42;;;;;;;;;9.00;9.00;;;;;25.27;54.65;99417.94;5087091;28;8863;-72
2022/06/27 01:15:12;;;;;;;;;6.40;6.40;;;;;25.27;54.37;99410.81;5086889;28;9000;-72
2022/06/27 01:17:42;;;;;;;;;7.20;7.20;;;;;25.26;54.76;99411.75;5086915;28;8856;-73
2022/06/27 01:20:11;;;;;;;;;10.20;9.80;;;;;25.28;55.37;99417.84;5039570;28;8832;-72
2022/06/27 01:22:42;;;;;;;;;8.20;8.20;;;;;25.29;55.21;99416.00;5092308;28;8874;-73
2022/06/27 01:25:14;;;;;;;;;11.40;10.20;;;;;25.29;55.30;99408.00;5106568;28;9003;-74
2022/06/27 01:27:44;;;;;;;;;9.00;9.00;;;;;25.27;54.85;99413.47;5110787;28;8821;-72
2022/06/27 01:30:15;;;;;;;;;8.60;8.40;;;;;25.27;54.35;99412.59;5094245;27;8852;-72
2022/06/27 01:32:44;;;;;;;;;9.60;8.60;;;;;25.26;54.39;99401.06;5110938;28;9611;-73
2022/06/27 01:35:12;;;;;;;;;10.00;9.40;;;;;25.26;54.94;99405.56;5112022;28;8840;-72
2022/06/27 01:37:45;;;;;;;;;8.00;8.00;;;;;25.24;54.25;99410.97;5127588;27;8863;-74
2022/06/27 01:40:15;;;;;;;;;9.40;9.40;;;;;25.23;55.56;99405.75;5126009;27;8853;-74
2022/06/27 01:42:45;;;;;;;;;9.80;9.80;;;;;25.23;56.07;99405.75;5112435;27;8846;-74
2022/06/27 01:45:14;;;;;;;;;12.20;12.20;;;;;25.22;56.19;99407.53;5079190;27;8857;-75
2022/06/27 01:47:43;;;;;;;;;10.40;9.60;;;;;25.21;55.83;99407.63;5106182;28;8851;-73
2022/06/27 01:50:13;;;;;;;;;11.80;11.80;;;;;25.15;55.27;99408.00;5092063;28;8855;-73
2022/06/27 01:52:50;;;;;;;;;10.20;10.20;;;;;25.11;56.27;99410.00;5027060;28;8842;-73
2022/06/27 01:55:19;;;;;;;;;12.60;12.60;;;;;25.09;56.76;99407.44;5091834;28;9091;-76
2022/06/27 01:57:49;;;;;;;;;12.80;11.80;;;;;25.10;56.42;99410.94;5116784;27;8860;-72
2022/06/27 02:00:18;;;;;;;;;9.80;9.80;;;;;25.10;56.74;99409.16;5112313;27;8863;-72
2022/06/27 02:02:59;;;;;;;;;15.40;14.80;;;;;25.13;56.51;99407.25;5098524;27;8849;-74
2022/06/27 02:05:43;;;;;;;;;13.60;13.60;;;;;25.09;56.42;99407.44;5108627;28;9016;-73
2022/06/27 02:08:14;;;;;;;;;13.60;13.20;;;;;25.09;56.66;99401.25;5091685;28;8860;-73
2022/06/27 02:10:43;;;;;;;;;12.00;11.60;;;;;25.08;55.90;99415.53;5074679;28;8871;-74
2022/06/27 02:13:14;;;;;;;;;9.20;9.00;;;;;25.06;56.03;99418.28;5088122;28;8888;-73
2022/06/27 02:16:05;;;;;;;;;12.00;12.00;;;;;25.08;55.50;99416.41;5088176;28;8994;-74
2022/06/27 02:18:37;;;;;;;;;13.80;13.80;;;;;25.05;56.75;99416.59;5087884;28;8838;-73
2022/06/27 02:21:07;;;;;;;;;12.00;12.00;;;;;25.04;57.10;99414.00;5071353;28;8854;-73
2022/06/27 02:23:37;;;;;;;;;12.00;10.80;;;;;25.03;56.98;99417.66;5088251;28;8955;-72
2022/06/27 02:26:07;;;;;;;;;15.40;15.20;;;;;25.02;57.81;99418.59;5088151;28;8857;-74
2022/06/27 02:28:36;;;;;;;;;11.40;11.20;;;;;25.00;57.21;99413.34;5078673;28;8865;-73
2022/06/27 02:31:07;;;;;;;;;9.60;9.60;;;;;24.99;56.51;99414.31;5075455;28;8853;-75
2022/06/27 02:33:38;;;;;;;;;9.00;8.60;;;;;24.98;55.38;99414.41;5070986;28;8849;-72
2022/06/27 02:36:09;;;;;;;;;7.80;7.80;;;;;24.95;54.79;99403.91;5084250;28;8844;-74
2022/06/27 02:38:41;;;;;;;;;11.80;11.00;;;;;24.94;56.06;99410.22;5020649;28;8866;-72
2022/06/27 02:41:16;;;;;;;;;13.80;13.80;;;;;24.93;56.03;99406.66;5087646;28;8864;-73
2022/06/27 02:43:48;;;;;;;;;12.20;11.20;;;;;24.94;56.16;99410.22;5070940;28;8834;-75
2022/06/27 02:46:16;;;;;;;;;11.20;11.20;;;;;24.94;55.58;99405.72;5086676;28;8885;-72
2022/06/27 02:48:49;;;;;;;;;10.80;10.80;;;;;24.94;55.93;99410.22;5070579;28;8850;-73
2022/06/27 02:51:21;;;;;;;;;11.80;11.00;;;;;24.89;56.00;99405.16;5090160;28;8870;-73
2022/06/27 02:54:00;;;;;;;;;11.60;11.60;;;;;24.90;56.40;99402.41;5088977;28;8835;-74
2022/06/27 02:56:50;;;;;;;;;11.40;11.40;;;;;24.92;56.88;99409.47;5089086;28;8856;-73
2022/06/27 02:59:23;;;;;;;;;11.60;11.60;;;;;24.90;57.29;99414.88;5105849;28;8843;-72
2022/06/27 03:01:56;;;;;;;;;11.60;11.60;;;;;24.87;57.34;99417.72;5067235;28;8833;-73
2022/06/27 03:04:40;;;;;;;;;12.60;12.60;;;;;24.87;57.44;99412.41;5062078;28;9005;-75
2022/06/27 03:07:09;;;;;;;;;13.60;12.20;;;;;24.86;57.73;99408.88;5070540;28;9650;-72
2022/06/27 03:09:39;;;;;;;;;11.60;11.60;;;;;24.87;57.70;99409.72;5087199;28;9001;-72
2022/06/27 03:12:08;;;;;;;;;9.80;9.80;;;;;24.88;57.15;99409.63;5087264;28;8837;-73
2022/06/27 03:14:40;;;;;;;;;8.80;8.80;;;;;24.87;55.91;99413.25;5087430;28;8857;-73
2022/06/27 03:17:08;;;;;;;;;8.60;8.60;;;;;24.90;55.70;99417.56;5070351;28;8857;-74
2022/06/27 03:20:12;;;;;;;;;13.80;13.00;;;;;24.93;56.17;99422.69;5038733;28;8890;-74
2022/06/27 03:23:15;;;;;;;;;11.80;11.80;;;;;24.95;56.46;99417.25;5007125;28;8867;-72
2022/06/27 03:25:59;;;;;;;;;12.00;11.00;;;;;24.98;56.74;99425.94;5006324;28;8863;-73
2022/06/27 03:28:33;;;;;;;;;10.40;10.20;;;;;25.02;56.58;99419.44;4990402;28;8993;-73
2022/06/27 03:31:04;;;;;;;;;10.60;10.60;;;;;25.05;56.48;99419.25;4974873;28;8851;-74
2022/06/27 03:33:40;;;;;;;;;11.20;11.20;;;;;25.10;56.69;99429.63;5010294;28;8865;-74
2022/06/27 03:36:24;;;;;;;;;9.00;9.00;;;;;25.15;55.79;99429.38;5023497;28;9054;-72
2022/06/27 03:38:53;;;;;;;;;18.40;16.40;;;;;25.19;55.50;99418.38;5031829;28;8847;-71
2022/06/27 03:41:24;;;;;;;;;12.00;12.00;;;;;25.26;55.50;99426.91;5030634;28;9004;-73
2022/06/27 03:43:53;;;;;;;;;13.00;10.60;;;;;25.31;55.09;99431.94;5063947;28;8863;-73
2022/06/27 03:46:23;;;;;;;;;12.00;12.00;;;;;25.37;55.08;99431.53;5031567;28;8908;-73
2022/06/27 03:51:45;;;;;;;;;14.80;14.80;;;;;25.55;55.06;99433.03;5064582;28;8871;-73
2022/06/27 03:54:13;;;;;;;;;21.00;19.20;;;;;25.63;54.33;99437.88;5014660;28;8974;-72
2022/06/27 03:56:43;;;;;;;;;12.80;12.20;;;;;25.72;54.58;99439.13;5047602;28;8855;-74
2022/06/27 03:59:13;;;;;;;;;25.00;24.40;;;;;25.84;55.70;99430.28;5078807;28;8985;-74
2022/06/27 04:01:42;;;;;;;;;20.80;19.20;;;;;25.93;55.63;99445.75;5087755;27;8883;-74
2022/06/27 04:04:11;;;;;;;;;16.80;16.80;;;;;25.97;55.82;99438.38;5083865;28;8902;-73
2022/06/27 04:06:42;;;;;;;;;14.60;13.80;;;;;26.06;56.31;99437.78;5107503;28;8859;-74
2022/06/27 04:09:12;;;;;;;;;52.00;44.75;;;;;26.15;56.27;99441.66;5103544;28;9705;-72
2022/06/27 04:11:42;;;;;;;;;19.20;18.00;;;;;26.21;55.90;99439.44;5106134;28;8875;-72
2022/06/27 04:14:16;;;;;;;;;15.00;15.00;;;;;26.25;55.49;99446.28;5104014;28;8857;-72
2022/06/27 04:17:04;;;;;;;;;36.00;32.75;;;;;26.35;55.59;99445.66;5037523;28;8875;-74
2022/06/27 04:20:04;;;;;;;;;20.40;19.40;;;;;26.43;55.01;99444.19;5013757;28;8891;-73
2022/06/27 04:23:02;;;;;;;;;15.40;14.80;;;;;26.53;54.84;99451.59;4964554;28;8881;-74
2022/06/27 04:25:49;;;;;;;;;12.60;12.60;;;;;26.54;54.53;99459.50;4948354;28;8883;-73
2022/06/27 04:28:19;;;;;;;;;19.20;16.20;;;;;26.55;54.08;99457.69;4980706;28;8873;-73
2022/06/27 04:30:48;;;;;;;;;20.00;19.00;;;;;26.49;54.73;99455.44;4917171;28;8865;-72
2022/06/27 04:33:16;;;;;;;;;19.40;19.40;;;;;26.50;55.03;99463.34;4980727;28;8907;-72
2022/06/27 04:35:46;;;;;;;;;14.00;14.00;;;;;26.59;54.32;99469.88;4961706;28;8887;-74
2022/06/27 04:38:17;;;;;;;;;22.20;22.20;;;;;26.66;55.23;99471.22;4928243;28;8903;-74
2022/06/27 04:40:55;;;;;;;;;16.20;16.20;;;;;26.73;55.15;99461.81;4964440;28;8872;-74
2022/06/27 04:43:26;;;;;;;;;19.40;18.20;;;;;26.72;55.27;99472.63;4980684;28;8892;-73
2022/06/27 04:45:55;;;;;;;;;20.60;20.60;;;;;26.37;55.87;99483.84;4980853;28;8877;-74
2022/06/27 04:48:43;;;;;;;;;17.40;17.40;;;;;26.40;55.17;99475.63;4948492;28;8880;-73
2022/06/27 04:51:14;;;;;;;;;14.40;14.20;;;;;26.50;54.99;99476.69;4948887;28;8888;-73
2022/06/27 04:53:43;;;;;;;;;14.00;14.00;;;;;26.59;53.99;99473.44;4968896;28;9008;-74
2022/06/27 04:56:12;;;;;;;;;16.40;15.60;;;;;26.70;53.87;99466.53;5000536;28;8864;-73
2022/06/27 04:58:42;;;;;;;;;22.00;19.80;;;;;26.76;54.05;99469.59;5021102;28;9039;-73
2022/06/27 05:01:13;;;;;;;;;18.60;17.20;;;;;26.86;53.05;99474.31;5107127;28;8835;-73
2022/06/27 05:03:49;;;;;;;;;16.00;15.60;;;;;26.84;53.04;99479.78;5109461;28;8841;-73
2022/06/27 05:06:25;;;;;;;;;17.00;16.20;;;;;26.99;52.66;99481.41;5126366;27;8865;-73
2022/06/27 05:08:54;;;;;;;;;16.00;14.20;;;;;27.17;52.63;99473.91;5107194;28;8856;-75
2022/06/27 05:11:23;;;;;;;;;18.60;18.00;;;;;27.31;52.15;99472.09;5106680;28;8927;-73
2022/06/27 05:13:53;;;;;;;;;16.40;16.40;;;;;27.49;51.90;99483.34;5104697;28;8863;-74
2022/06/27 05:16:44;;;;;;;;;16.60;16.60;;;;;27.65;50.85;99483.91;5065092;28;9762;-74
2022/06/27 05:19:14;;;;;;;;;13.80;13.60;;;;;27.70;50.74;99487.13;5064357;28;9097;-76
2022/06/27 05:21:46;;;;;;;;;20.00;17.60;;;;;27.84;49.90;99493.31;5048885;28;8860;-76
2022/06/27 05:24:18;;;;;;;;;20.20;20.20;;;;;28.01;48.67;99487.56;5049265;28;8863;-74
2022/06/27 05:26:48;;;;;;;;;23.60;23.60;;;;;28.11;48.72;99488.63;5044818;28;8866;-73
2022/06/27 05:29:19;;;;;;;;;18.80;18.80;;;;;28.02;47.04;99492.00;5049866;28;8969;-74
2022/06/27 05:31:49;;;;;;;;;17.00;16.00;;;;;27.98;46.62;99494.03;5046025;28;8998;-74
2022/06/27 05:34:20;;;;;;;;;14.00;13.00;;;;;27.89;46.54;99496.53;5049262;28;8886;-74
2022/06/27 05:36:49;;;;;;;;;18.00;17.60;;;;;27.88;47.15;99503.66;5065810;28;8828;-73
2022/06/27 05:39:18;;;;;;;;;13.60;13.60;;;;;28.10;47.10;99500.31;5049074;28;8876;-76
2022/06/27 05:41:48;;;;;;;;;15.40;15.40;;;;;28.34;47.06;99502.13;5064598;28;9710;-74
2022/06/27 05:44:24;;;;;;;;;20.40;20.40;;;;;28.53;47.18;99504.31;5031652;28;8867;-73
2022/06/27 05:46:53;;;;;;;;;15.60;15.00;;;;;28.71;47.57;99499.34;5048848;28;8964;-72
2022/06/27 05:49:45;;;;;;;;;20.60;19.20;;;;;28.92;47.20;99510.25;5066631;28;8872;-73
2022/06/27 05:52:14;;;;;;;;;11.00;10.80;;;;;29.12;44.58;99506.03;5053025;28;8872;-75
2022/06/27 05:54:44;;;;;;;;;12.20;12.20;;;;;29.27;45.15;99504.00;5097960;28;8999;-74
2022/06/27 05:57:14;;;;;;;;;13.20;13.00;;;;;29.40;45.57;99498.53;5087565;28;8859;-73
2022/06/27 05:59:45;;;;;;;;;15.00;14.00;;;;;29.52;45.60;99505.59;5106309;28;8974;-74
2022/06/27 06:02:13;;;;;;;;;14.40;14.00;;;;;29.74;45.14;99502.06;5063763;28;8998;-73
2022/06/27 06:04:42;;;;;;;;;12.80;12.80;;;;;29.90;45.06;99504.34;5071650;28;9004;-72
2022/06/27 06:07:14;;;;;;;;;14.60;14.40;;;;;30.07;44.82;99508.34;5056825;28;9714;-66
2022/06/27 06:09:43;;;;;;;;;16.60;16.40;;;;;30.23;44.96;99507.94;5056630;28;9643;-67
2022/06/27 06:12:13;;;;;;;;;16.40;15.40;;;;;30.32;44.02;99509.88;5086580;28;9010;-69
2022/06/27 06:14:49;;;;;;;;;17.80;15.80;;;;;30.44;44.10;99518.78;5068433;28;8844;-68
2022/06/27 06:17:18;;;;;;;;;17.60;17.00;;;;;30.53;43.58;99515.31;5086109;28;8863;-68
2022/06/27 06:19:46;;;;;;;;;15.40;15.20;;;;;30.64;43.82;99520.66;5083864;28;8828;-68
2022/06/27 06:22:15;;;;;;;;;14.00;13.20;;;;;30.73;43.08;99516.28;5089602;28;8851;-68
2022/06/27 06:24:47;;;;;;;;;13.60;12.80;;;;;30.83;43.08;99521.75;5107774;28;8861;-66
2022/06/27 06:27:16;;;;;;;;;14.20;13.20;;;;;30.92;43.26;99525.53;5088501;28;8832;-65
2022/06/27 06:29:45;;;;;;;;;13.20;12.20;;;;;30.91;42.49;99527.38;5088826;28;8875;-68
2022/06/27 06:32:16;;;;;;;;;11.00;10.80;;;;;30.97;42.31;99526.00;5103791;28;9652;-66
2022/06/27 06:34:45;;;;;;;;;14.00;14.00;;;;;30.98;42.41;99533.91;5106847;28;8849;-68
2022/06/27 06:37:15;;;;;;;;;13.20;13.20;;;;;31.05;41.96;99536.94;5067541;28;8896;-66
2022/06/27 06:39:43;;;;;;;;;13.20;12.40;;;;;31.11;41.83;99536.41;5086753;28;8850;-69
2022/06/27 06:42:12;;;;;;;;;11.80;11.60;;;;;31.02;42.11;99537.22;5087124;28;8838;-66
2022/06/27 06:45:08;;;;;;;;;11.20;10.40;;;;;31.18;41.53;99545.69;5070310;28;8862;-68
2022/06/27 06:47:50;;;;;;;;;14.40;14.40;;;;;31.20;41.73;99542.84;5101382;28;8865;-69
2022/06/27 06:50:19;;;;;;;;;11.80;11.80;;;;;31.31;40.50;99547.31;5019986;28;8992;-69
2022/06/27 06:52:50;;;;;;;;;13.00;13.00;;;;;31.39;40.78;99547.50;5078839;28;8838;-68
2022/06/27 06:55:21;;;;;;;;;10.00;10.00;;;;;31.46;39.73;99545.97;5086511;28;8829;-69
2022/06/27 06:57:50;;;;;;;;;11.60;10.60;;;;;31.54;39.49;99548.03;5086630;28;8861;-67
2022/06/27 07:00:20;;;;;;;;;11.00;11.00;;;;;31.53;38.81;99546.31;5086563;28;8861;-66
2022/06/27 07:02:53;;;;;;;;;11.20;10.20;;;;;31.59;38.39;99551.16;5044850;28;8925;-67
2022/06/27 07:05:21;;;;;;;;;9.80;9.80;;;;;31.59;38.54;99557.41;5085776;28;8847;-67
2022/06/27 07:07:51;;;;;;;;;10.80;9.60;;;;;31.67;37.69;99551.34;5095583;27;9595;-69
2022/06/27 07:10:21;;;;;;;;;10.80;9.80;;;;;31.66;37.37;99550.50;5127389;27;8961;-68
2022/06/27 07:12:50;;;;;;;;;8.80;8.00;;;;;31.74;37.40;99543.53;5076648;27;8844;-67
2022/06/27 07:15:19;;;;;;;;;9.60;9.60;;;;;31.80;37.94;99551.97;5126312;27;9041;-68
2022/06/27 07:17:49;;;;;;;;;8.80;8.20;;;;;31.82;36.95;99551.81;5121875;27;8852;-67
2022/06/27 07:20:20;;;;;;;;;9.00;9.00;;;;;31.84;36.78;99553.38;5109094;27;8895;-67
2022/06/27 07:22:50;;;;;;;;;11.00;10.60;;;;;31.88;37.08;99553.97;5107255;28;8840;-67
2022/06/27 07:25:19;;;;;;;;;10.20;10.20;;;;;31.97;37.59;99553.13;5108952;28;8930;-67
2022/06/27 07:27:47;;;;;;;;;9.80;9.80;;;;;31.95;37.12;99551.56;5102164;28;8885;-68
2022/06/27 07:30:19;;;;;;;;;11.20;11.20;;;;;32.00;37.14;99546.59;5088474;28;8824;-68
2022/06/27 07:32:48;;;;;;;;;9.20;9.20;;;;;32.06;36.96;99554.16;5089126;28;8859;-68
2022/06/27 07:35:19;;;;;;;;;9.40;9.40;;;;;32.08;36.97;99549.50;5105659;28;8961;-67
2022/06/27 07:37:49;;;;;;;;;10.60;10.40;;;;;32.14;37.15;99561.59;5104809;28;8872;-68
2022/06/27 07:40:20;;;;;;;;;11.20;9.40;;;;;32.17;36.73;99561.31;5075788;28;8855;-69
2022/06/27 07:42:50;;;;;;;;;10.60;10.60;;;;;32.05;37.58;99558.72;5088889;28;8961;-79
2022/06/27 07:45:23;;;;;;;;;10.60;9.20;;;;;32.13;37.13;99566.13;5107393;28;8859;-78
2022/06/27 07:47:54;;;;;;;;;10.00;10.00;;;;;32.17;37.13;99564.00;5122532;27;8869;-77
2022/06/27 07:50:39;;;;;;;;;9.20;9.20;;;;;32.03;36.54;99566.09;5085535;28;8862;-79
2022/06/27 07:53:14;;;;;;;;;8.80;8.80;;;;;32.19;36.08;99565.59;5078207;28;8948;-76
2022/06/27 07:55:47;;;;;;;;;13.20;13.20;;;;;32.01;36.13;99568.06;5075959;28;8920;-78
2022/06/27 07:58:16;;;;;;;;;11.20;10.60;;;;;32.20;36.12;99567.28;5085580;28;8909;-78
2022/06/27 08:00:47;;;;;;;;;8.40;8.40;;;;;31.86;36.48;99572.97;5068493;28;8822;-77
2022/06/27 08:06:08;;;;;;;;;11.00;11.00;;;;;32.06;36.46;99573.06;5069514;28;8849;-77
2022/06/27 08:08:37;;;;;;;;;12.40;12.40;;;;;32.21;36.26;99569.00;5085904;28;8882;-80
2022/06/27 08:11:08;;;;;;;;;12.80;12.00;;;;;32.28;36.05;99576.53;5085096;28;8862;-75
2022/06/27 08:13:37;;;;;;;;;10.60;10.60;;;;;32.38;35.24;99575.56;5084550;28;8922;-75
2022/06/27 08:16:06;;;;;;;;;9.00;9.00;;;;;32.49;35.38;99579.09;5085180;28;8954;-77
2022/06/27 08:18:39;;;;;;;;;11.00;9.80;;;;;32.58;34.99;99575.59;5085736;28;8868;-78
2022/06/27 08:21:09;;;;;;;;;8.80;7.80;;;;;32.64;34.17;99573.16;5087788;28;8965;-77
2022/06/27 08:23:38;;;;;;;;;7.80;7.80;;;;;32.68;34.03;99570.19;5088345;28;8878;-76
2022/06/27 08:26:08;;;;;;;;;11.20;11.20;;;;;32.74;34.20;99565.09;5068609;28;8878;-78
2022/06/27 08:28:38;;;;;;;;;7.40;7.40;;;;;32.76;33.98;99564.91;5099299;28;8856;-75
2022/06/27 08:31:08;;;;;;;;;11.00;11.00;;;;;32.80;34.34;99564.50;5103591;28;8850;-78
2022/06/27 08:33:37;;;;;;;;;11.00;11.00;;;;;32.84;34.73;99573.19;5084079;28;8854;-76
2022/06/27 08:36:06;;;;;;;;;9.60;9.60;;;;;32.69;34.99;99578.16;5067170;28;8853;-77
2022/06/27 08:38:42;;;;;;;;;10.40;9.60;;;;;32.81;34.43;99570.75;5066387;28;8864;-77
2022/06/27 08:41:11;;;;;;;;;9.00;9.00;;;;;32.84;34.13;99570.47;5064468;28;8832;-76
2022/06/27 08:43:41;;;;;;;;;9.00;9.00;;;;;32.96;34.36;99573.88;5064557;28;8856;-78
2022/06/27 08:46:15;;;;;;;;;9.60;9.40;;;;;32.99;34.09;99571.75;4998945;28;8892;-77
2022/06/27 08:48:47;;;;;;;;;10.00;10.00;;;;;33.07;33.98;99573.72;5064895;28;8860;-78
2022/06/27 08:51:16;;;;;;;;;9.80;9.80;;;;;33.17;33.96;99571.88;5047431;28;8844;-76
2022/06/27 08:53:47;;;;;;;;;9.20;9.20;;;;;33.26;33.86;99577.41;5064725;28;8863;-76
2022/06/27 08:56:16;;;;;;;;;7.60;7.60;;;;;33.37;33.54;99572.69;5015564;28;8878;-75
2022/06/27 08:58:46;;;;;;;;;8.60;8.60;;;;;33.47;32.94;99572.66;5064999;28;8975;-77
2022/06/27 09:01:16;;;;;;;;;8.20;8.20;;;;;33.51;31.73;99565.09;5084777;28;8977;-76
2022/06/27 09:04:00;;;;;;;;;7.00;7.00;;;;;33.59;32.70;99559.78;5049695;28;8866;-77
2022/06/27 09:06:32;;;;;;;;;8.20;7.40;;;;;33.73;31.95;99567.44;5084531;28;8887;-76
2022/06/27 09:09:06;;;;;;;;;8.00;8.00;;;;;33.63;31.73;99563.91;5069354;28;8846;-76
2022/06/27 09:11:37;;;;;;;;;9.00;9.00;;;;;33.72;31.61;99560.31;5080054;28;8836;-77
2022/06/27 09:14:07;;;;;;;;;9.20;9.20;;;;;33.74;31.52;99563.75;5122797;28;8865;-77
2022/06/27 09:16:36;;;;;;;;;8.40;8.40;;;;;33.77;30.80;99562.59;5102599;28;8844;-77
2022/06/27 09:19:12;;;;;;;;;9.40;9.40;;;;;33.34;32.00;99562.16;5109427;28;8857;-77
2022/06/27 09:21:41;;;;;;;;;7.80;7.80;;;;;33.49;30.70;99559.81;5106732;28;8877;-77
2022/06/27 09:24:11;;;;;;;;;9.40;8.60;;;;;33.55;30.53;99555.69;5107347;28;8857;-77
2022/06/27 09:26:42;;;;;;;;;10.20;9.80;;;;;33.52;30.01;99564.09;5088700;28;8853;-76
2022/06/27 09:29:14;;;;;;;;;9.60;9.60;;;;;33.55;30.66;99559.22;5107621;28;8856;-78
2022/06/27 09:31:45;;;;;;;;;7.60;7.60;;;;;33.68;30.37;99556.22;5086230;28;8855;-72
2022/06/27 09:34:16;;;;;;;;;8.60;8.20;;;;;33.73;29.45;99559.34;5044238;28;9707;-73
2022/06/27 09:36:48;;;;;;;;;9.20;8.20;;;;;33.69;29.47;99551.69;5087701;28;8857;-75
2022/06/27 09:39:21;;;;;;;;;8.00;8.00;;;;;33.82;29.78;99554.03;5101265;28;8864;-74
2022/06/27 09:41:58;;;;;;;;;10.00;10.00;;;;;33.99;28.84;99555.94;5098909;28;8878;-73
2022/06/27 09:44:29;;;;;;;;;9.00;9.00;;;;;34.15;29.27;99550.69;5069757;28;8857;-76
2022/06/27 09:47:08;;;;;;;;;7.00;7.00;;;;;34.22;29.13;99544.69;5111364;28;8881;-75
2022/06/27 09:49:40;;;;;;;;;8.80;8.80;;;;;34.27;28.86;99545.94;5091900;28;8853;-75
2022/06/27 09:52:11;;;;;;;;;8.40;8.40;;;;;34.38;28.34;99545.72;5092146;28;8974;-77
2022/06/27 09:54:43;;;;;;;;;10.60;10.60;;;;;34.48;28.29;99545.66;5093548;28;8843;-77
2022/06/27 09:57:13;;;;;;;;;8.80;8.80;;;;;34.49;29.60;99547.34;5090565;28;8993;-75
2022/06/27 09:59:44;;;;;;;;;7.00;7.00;;;;;33.55;29.91;99548.41;5104532;28;8848;-75
2022/06/27 10:02:16;;;;;;;;;11.80;11.80;;;;;33.30;32.04;99547.22;5106762;28;8843;-75
2022/06/27 10:04:47;;;;;;;;;15.00;15.00;;;;;33.40;33.42;99545.34;5107434;28;8852;-74
2022/06/27 10:07:19;;;;;;;;;15.50;15.50;;;;;32.94;34.28;99555.09;5093579;28;8848;-75
2022/06/27 10:09:53;;;;;;;;;15.00;15.00;;;;;32.78;34.39;99552.13;5107114;28;8839;-76
2022/06/27 10:12:27;;;;;;;;;13.80;13.80;;;;;33.02;34.29;99546.25;5104354;28;9001;-75
2022/06/27 10:15:25;;;;;;;;;13.00;13.00;;;;;32.52;34.58;99549.13;5107133;28;8984;-78
2022/06/27 10:17:58;;;;;;;;;15.40;14.40;;;;;32.28;34.94;99541.44;5089917;28;8855;-78
2022/06/27 10:20:35;;;;;;;;;15.40;15.40;;;;;31.56;35.57;99544.19;5090171;28;8844;-78
2022/06/27 10:23:26;;;;;;;;;15.80;15.80;;;;;31.31;36.44;99540.09;5102494;28;8871;-78
2022/06/27 10:25:57;;;;;;;;;13.80;13.80;;;;;31.16;35.88;99536.88;5070489;28;8845;-79
2022/06/27 10:28:26;;;;;;;;;15.40;15.40;;;;;31.34;35.86;99542.50;5083938;28;8985;-77
2022/06/27 10:30:56;;;;;;;;;17.20;14.00;;;;;31.67;35.26;99533.31;5100895;28;9016;-78
2022/06/27 10:33:38;;;;;;;;;13.80;12.80;;;;;31.99;35.50;99532.28;5104069;28;8989;-79
2022/06/27 10:36:13;;;;;;;;;14.80;14.20;;;;;32.25;34.60;99529.94;5098170;28;8867;-78
2022/06/27 10:38:49;;;;;;;;;16.20;13.60;;;;;32.51;33.83;99532.06;5070062;28;8990;-77
2022/06/27 10:41:40;;;;;;;;;11.80;11.80;;;;;32.85;32.42;99533.50;5103849;28;8869;-75
2022/06/27 10:44:38;;;;;;;;;12.60;11.40;;;;;33.04;31.85;99522.66;5101058;28;8841;-78
2022/06/27 10:47:33;;;;;;;;;12.20;10.40;;;;;33.17;31.40;99517.81;5021783;28;8866;-77
2022/06/27 10:50:11;;;;;;;;;11.60;10.80;;;;;33.01;30.81;99512.16;5034837;28;8873;-78
2022/06/27 10:52:45;;;;;;;;;11.60;11.20;;;;;33.17;31.41;99516.97;5032448;28;8850;-78
2022/06/27 10:55:24;;;;;;;;;10.20;10.20;;;;;33.30;30.39;99508.53;5066460;28;8878;-78
2022/06/27 10:57:56;;;;;;;;;8.40;8.40;;;;;33.46;30.82;99510.59;5049351;28;8866;-76
2022/06/27 11:00:49;;;;;;;;;8.60;8.60;;;;;33.62;30.20;99508.13;5016300;28;8878;-76
2022/06/27 11:03:23;;;;;;;;;11.80;10.00;;;;;33.69;30.04;99511.13;5066274;28;8884;-76
2022/06/27 11:05:54;;;;;;;;;10.80;9.60;;;;;33.82;29.66;99510.72;5062507;28;8882;-76
2022/06/27 11:08:24;;;;;;;;;8.40;8.40;;;;;33.99;29.36;99510.78;5066498;28;8870;-76
2022/06/27 11:10:53;;;;;;;;;9.40;9.40;;;;;34.18;28.74;99517.09;5065451;28;8969;-78
2022/06/27 11:13:43;;;;;;;;;12.40;11.00;;;;;34.41;28.57;99508.53;5060960;28;8857;-77
2022/06/27 11:16:16;;;;;;;;;10.00;10.00;;;;;34.60;28.18;99512.91;5044383;28;8860;-79
2022/06/27 11:18:48;;;;;;;;;11.20;11.20;;;;;34.74;27.93;99520.50;5056157;28;8861;-80
2022/06/27 11:21:18;;;;;;;;;12.00;11.80;;;;;34.91;28.20;99513.34;5082582;28;8851;-80
2022/06/27 11:23:58;;;;;;;;;11.40;10.40;;;;;34.70;27.56;99513.69;5089217;28;8869;-78
2022/06/27 11:26:29;;;;;;;;;11.60;11.60;;;;;34.33;27.80;99511.97;5096288;28;8988;-77
2022/06/27 11:32:03;;;;;;;;;12.80;12.80;;;;;34.81;27.47;99505.31;5088960;28;8860;-78
2022/06/27 11:34:39;;;;;;;;;9.60;8.80;;;;;35.13;26.57;99493.84;5089952;28;8945;-76
2022/06/27 11:37:10;;;;;;;;;11.00;11.00;;;;;35.39;26.92;99505.69;5106342;28;8872;-77
2022/06/27 11:39:40;;;;;;;;;9.80;9.80;;;;;35.46;26.93;99501.31;5094688;28;9605;-77
2022/06/27 11:42:11;;;;;;;;;10.00;10.00;;;;;35.70;26.26;99497.91;5105966;28;8919;-77
2022/06/27 11:45:05;;;;;;;;;10.00;10.00;;;;;36.04;25.30;99503.25;5091116;28;8869;-78
2022/06/27 11:47:35;;;;;;;;;9.00;9.00;;;;;36.33;25.34;99501.97;5119923;27;9014;-78
2022/06/27 11:50:05;;;;;;;;;11.50;10.00;;;;;36.62;24.55;99500.63;5102169;28;8930;-78
2022/06/27 11:52:40;;;;;;;;;12.25;10.00;;;;;36.92;24.19;99503.69;5095080;28;8845;-78
2022/06/27 11:55:11;;;;;;;;;10.00;10.00;;;;;37.20;23.89;99506.88;5124890;27;8848;-76
2022/06/27 11:57:44;;;;;;;;;12.00;12.00;;;;;37.50;23.84;99497.09;5109283;28;8853;-76
2022/06/27 12:00:19;;;;;;;;;13.00;12.00;;;;;37.92;23.45;99500.47;5109512;28;8834;-77
2022/06/27 12:02:53;;;;;;;;;10.00;10.00;;;;;38.23;23.13;99500.50;5108402;28;8963;-76
2022/06/27 12:05:23;;;;;;;;;11.00;11.00;;;;;38.56;22.56;99501.09;5109503;28;8865;-77